sensor_id;sensor_type;location;lat;lon;timestamp;pressure;altitude;pressure_sealevel;temperature
64960;BMP180;51487;52.266;10.542;2023-08-21T00:01:32;101349.00;;;20.90
64960;BMP180;51487;52.266;10.542;2023-08-21T00:03:58;101358.00;;;20.80
64960;BMP180;51487;52.266;10.542;2023-08-21T00:06:23;101364.00;;;20.80
64960;BMP180;51487;52.266;10.542;2023-08-21T00:08:49;101373.00;;;20.70
64960;BMP180;51487;52.266;10.542;2023-08-21T00:11:14;101371.00;;;20.80
64960;BMP180;51487;52.266;10.542;2023-08-21T00:13:39;101372.00;;;20.80
64960;BMP180;51487;52.266;10.542;2023-08-21T00:16:08;101370.00;;;20.70
64960;BMP180;51487;52.266;10.542;2023-08-21T00:18:33;101365.00;;;20.80
64960;BMP180;51487;52.266;10.542;2023-08-21T00:20:59;101365.00;;;20.70
64960;BMP180;51487;52.266;10.542;2023-08-21T00:23:24;101363.00;;;20.70
64960;BMP180;51487;52.266;10.542;2023-08-21T00:25:50;101366.00;;;20.60
64960;BMP180;51487;52.266;10.542;2023-08-21T00:28:15;101358.00;;;20.60
64960;BMP180;51487;52.266;10.542;2023-08-21T00:30:41;101355.00;;;20.60
64960;BMP180;51487;52.266;10.542;2023-08-21T00:33:07;101351.00;;;20.70
64960;BMP180;51487;52.266;10.542;2023-08-21T00:35:32;101355.00;;;20.70
64960;BMP180;51487;52.266;10.542;2023-08-21T00:37:58;101351.00;;;20.80
64960;BMP180;51487;52.266;10.542;2023-08-21T00:40:23;101357.00;;;20.70
64960;BMP180;51487;52.266;10.542;2023-08-21T00:42:49;101344.00;;;20.60
64960;BMP180;51487;52.266;10.542;2023-08-21T00:45:14;101350.00;;;20.60
64960;BMP180;51487;52.266;10.542;2023-08-21T00:47:40;101349.00;;;20.60
64960;BMP180;51487;52.266;10.542;2023-08-21T00:50:09;101347.00;;;20.50
64960;BMP180;51487;52.266;10.542;2023-08-21T00:52:38;101347.00;;;20.50
64960;BMP180;51487;52.266;10.542;2023-08-21T00:55:06;101340.00;;;20.50
64960;BMP180;51487;52.266;10.542;2023-08-21T00:57:33;101344.00;;;20.40
64960;BMP180;51487;52.266;10.542;2023-08-21T01:00:02;101337.00;;;20.40
64960;BMP180;51487;52.266;10.542;2023-08-21T01:02:29;101333.00;;;20.30
64960;BMP180;51487;52.266;10.542;2023-08-21T01:04:55;101331.00;;;20.30
64960;BMP180;51487;52.266;10.542;2023-08-21T01:07:20;101335.00;;;20.30
64960;BMP180;51487;52.266;10.542;2023-08-21T01:09:52;101331.00;;;20.20
64960;BMP180;51487;52.266;10.542;2023-08-21T01:12:33;101337.00;;;20.20
64960;BMP180;51487;52.266;10.542;2023-08-21T01:15:06;101341.00;;;20.20
64960;BMP180;51487;52.266;10.542;2023-08-21T01:17:34;101334.00;;;20.20
64960;BMP180;51487;52.266;10.542;2023-08-21T01:20:03;101331.00;;;20.20
64960;BMP180;51487;52.266;10.542;2023-08-21T01:22:41;101330.00;;;20.20
64960;BMP180;51487;52.266;10.542;2023-08-21T01:25:11;101333.00;;;20.10
64960;BMP180;51487;52.266;10.542;2023-08-21T01:27:41;101330.00;;;20.10
64960;BMP180;51487;52.266;10.542;2023-08-21T01:30:11;101330.00;;;20.10
64960;BMP180;51487;52.266;10.542;2023-08-21T01:32:59;101329.00;;;20.10
64960;BMP180;51487;52.266;10.542;2023-08-21T01:35:24;101333.00;;;20.10
64960;BMP180;51487;52.266;10.542;2023-08-21T01:37:51;101327.00;;;20.00
64960;BMP180;51487;52.266;10.542;2023-08-21T01:40:23;101329.00;;;20.00
64960;BMP180;51487;52.266;10.542;2023-08-21T01:42:49;101327.00;;;19.90
64960;BMP180;51487;52.266;10.542;2023-08-21T01:45:15;101332.00;;;19.90
64960;BMP180;51487;52.266;10.542;2023-08-21T01:47:41;101333.00;;;19.90
64960;BMP180;51487;52.266;10.542;2023-08-21T01:50:07;101321.00;;;19.90
64960;BMP180;51487;52.266;10.542;2023-08-21T01:52:33;101324.00;;;20.00
64960;BMP180;51487;52.266;10.542;2023-08-21T01:55:00;101324.00;;;19.90
64960;BMP180;51487;52.266;10.542;2023-08-21T01:57:25;101329.00;;;19.90
64960;BMP180;51487;52.266;10.542;2023-08-21T01:59:52;101331.00;;;19.90
64960;BMP180;51487;52.266;10.542;2023-08-21T02:02:17;101329.00;;;19.80
64960;BMP180;51487;52.266;10.542;2023-08-21T02:04:43;101325.00;;;19.80
64960;BMP180;51487;52.266;10.542;2023-08-21T02:07:08;101323.00;;;19.80
64960;BMP180;51487;52.266;10.542;2023-08-21T02:09:34;101319.00;;;19.80
64960;BMP180;51487;52.266;10.542;2023-08-21T02:11:59;101321.00;;;19.70
64960;BMP180;51487;52.266;10.542;2023-08-21T02:14:25;101322.00;;;19.70
64960;BMP180;51487;52.266;10.542;2023-08-21T02:16:50;101330.00;;;19.70
64960;BMP180;51487;52.266;10.542;2023-08-21T02:19:15;101330.00;;;19.60
64960;BMP180;51487;52.266;10.542;2023-08-21T02:21:41;101323.00;;;19.50
64960;BMP180;51487;52.266;10.542;2023-08-21T02:24:07;101322.00;;;19.50
64960;BMP180;51487;52.266;10.542;2023-08-21T02:26:32;101332.00;;;19.50
64960;BMP180;51487;52.266;10.542;2023-08-21T02:28:58;101330.00;;;19.50
64960;BMP180;51487;52.266;10.542;2023-08-21T02:31:24;101322.00;;;19.40
64960;BMP180;51487;52.266;10.542;2023-08-21T02:33:49;101323.00;;;19.40
64960;BMP180;51487;52.266;10.542;2023-08-21T02:36:15;101324.00;;;19.40
64960;BMP180;51487;52.266;10.542;2023-08-21T02:38:41;101324.00;;;19.30
64960;BMP180;51487;52.266;10.542;2023-08-21T02:41:07;101328.00;;;19.40
64960;BMP180;51487;52.266;10.542;2023-08-21T02:43:33;101327.00;;;19.40
64960;BMP180;51487;52.266;10.542;2023-08-21T02:45:59;101322.00;;;19.30
64960;BMP180;51487;52.266;10.542;2023-08-21T02:48:24;101318.00;;;19.30
64960;BMP180;51487;52.266;10.542;2023-08-21T02:50:49;101319.00;;;19.30
64960;BMP180;51487;52.266;10.542;2023-08-21T02:53:15;101321.00;;;19.20
64960;BMP180;51487;52.266;10.542;2023-08-21T02:55:40;101318.00;;;19.10
64960;BMP180;51487;52.266;10.542;2023-08-21T02:58:06;101322.00;;;19.10
64960;BMP180;51487;52.266;10.542;2023-08-21T03:00:31;101336.00;;;19.10
64960;BMP180;51487;52.266;10.542;2023-08-21T03:02:57;101324.00;;;19.10
64960;BMP180;51487;52.266;10.542;2023-08-21T03:05:22;101334.00;;;19.10
64960;BMP180;51487;52.266;10.542;2023-08-21T03:07:48;101330.00;;;19.10
64960;BMP180;51487;52.266;10.542;2023-08-21T03:10:13;101334.00;;;19.00
64960;BMP180;51487;52.266;10.542;2023-08-21T03:12:39;101325.00;;;19.00
64960;BMP180;51487;52.266;10.542;2023-08-21T03:15:05;101329.00;;;18.90
64960;BMP180;51487;52.266;10.542;2023-08-21T03:17:31;101314.00;;;18.90
64960;BMP180;51487;52.266;10.542;2023-08-21T03:19:56;101320.00;;;18.80
64960;BMP180;51487;52.266;10.542;2023-08-21T03:22:22;101316.00;;;18.80
64960;BMP180;51487;52.266;10.542;2023-08-21T03:24:48;101321.00;;;18.70
64960;BMP180;51487;52.266;10.542;2023-08-21T03:27:16;101330.00;;;18.70
64960;BMP180;51487;52.266;10.542;2023-08-21T03:29:42;101325.00;;;18.80
64960;BMP180;51487;52.266;10.542;2023-08-21T03:32:17;101326.00;;;18.80
64960;BMP180;51487;52.266;10.542;2023-08-21T03:34:45;101327.00;;;18.80
64960;BMP180;51487;52.266;10.542;2023-08-21T03:37:11;101326.00;;;18.70
64960;BMP180;51487;52.266;10.542;2023-08-21T03:39:36;101328.00;;;18.70
64960;BMP180;51487;52.266;10.542;2023-08-21T03:42:02;101338.00;;;18.60
64960;BMP180;51487;52.266;10.542;2023-08-21T03:44:28;101323.00;;;18.60
64960;BMP180;51487;52.266;10.542;2023-08-21T03:46:53;101320.00;;;18.60
64960;BMP180;51487;52.266;10.542;2023-08-21T03:49:19;101321.00;;;18.60
64960;BMP180;51487;52.266;10.542;2023-08-21T03:51:44;101328.00;;;18.60
64960;BMP180;51487;52.266;10.542;2023-08-21T03:54:10;101325.00;;;18.60
64960;BMP180;51487;52.266;10.542;2023-08-21T03:56:36;101320.00;;;18.60
64960;BMP180;51487;52.266;10.542;2023-08-21T03:59:01;101326.00;;;18.60
64960;BMP180;51487;52.266;10.542;2023-08-21T04:01:27;101330.00;;;18.60
64960;BMP180;51487;52.266;10.542;2023-08-21T04:03:52;101325.00;;;18.60
64960;BMP180;51487;52.266;10.542;2023-08-21T04:06:18;101333.00;;;18.60
64960;BMP180;51487;52.266;10.542;2023-08-21T04:08:43;101334.00;;;18.60
64960;BMP180;51487;52.266;10.542;2023-08-21T04:11:09;101327.00;;;18.60
64960;BMP180;51487;52.266;10.542;2023-08-21T04:13:34;101334.00;;;18.60
64960;BMP180;51487;52.266;10.542;2023-08-21T04:16:00;101336.00;;;18.70
64960;BMP180;51487;52.266;10.542;2023-08-21T04:18:26;101329.00;;;18.60
64960;BMP180;51487;52.266;10.542;2023-08-21T04:20:51;101337.00;;;18.60
64960;BMP180;51487;52.266;10.542;2023-08-21T04:23:17;101330.00;;;18.60
64960;BMP180;51487;52.266;10.542;2023-08-21T04:25:42;101342.00;;;18.60
64960;BMP180;51487;52.266;10.542;2023-08-21T04:28:08;101335.00;;;18.50
64960;BMP180;51487;52.266;10.542;2023-08-21T04:30:34;101331.00;;;18.50
64960;BMP180;51487;52.266;10.542;2023-08-21T04:33:00;101337.00;;;18.50
64960;BMP180;51487;52.266;10.542;2023-08-21T04:35:25;101329.00;;;18.50
64960;BMP180;51487;52.266;10.542;2023-08-21T04:37:51;101334.00;;;18.50
64960;BMP180;51487;52.266;10.542;2023-08-21T04:40:16;101324.00;;;18.50
64960;BMP180;51487;52.266;10.542;2023-08-21T04:42:45;101330.00;;;18.50
64960;BMP180;51487;52.266;10.542;2023-08-21T04:45:11;101329.00;;;18.50
64960;BMP180;51487;52.266;10.542;2023-08-21T04:47:36;101334.00;;;18.50
64960;BMP180;51487;52.266;10.542;2023-08-21T04:50:02;101333.00;;;18.50
64960;BMP180;51487;52.266;10.542;2023-08-21T04:52:27;101328.00;;;18.50
64960;BMP180;51487;52.266;10.542;2023-08-21T04:54:53;101339.00;;;18.60
64960;BMP180;51487;52.266;10.542;2023-08-21T04:57:19;101337.00;;;18.60
64960;BMP180;51487;52.266;10.542;2023-08-21T04:59:46;101342.00;;;18.70
64960;BMP180;51487;52.266;10.542;2023-08-21T05:02:12;101344.00;;;18.70
64960;BMP180;51487;52.266;10.542;2023-08-21T05:04:37;101351.00;;;18.70
64960;BMP180;51487;52.266;10.542;2023-08-21T05:07:04;101347.00;;;18.70
64960;BMP180;51487;52.266;10.542;2023-08-21T05:09:30;101344.00;;;18.70
64960;BMP180;51487;52.266;10.542;2023-08-21T05:11:56;101355.00;;;18.70
64960;BMP180;51487;52.266;10.542;2023-08-21T05:14:22;101351.00;;;18.50
64960;BMP180;51487;52.266;10.542;2023-08-21T05:16:51;101356.00;;;18.50
64960;BMP180;51487;52.266;10.542;2023-08-21T05:19:17;101365.00;;;18.50
64960;BMP180;51487;52.266;10.542;2023-08-21T05:21:43;101365.00;;;18.50
64960;BMP180;51487;52.266;10.542;2023-08-21T05:24:09;101370.00;;;18.50
64960;BMP180;51487;52.266;10.542;2023-08-21T05:26:35;101370.00;;;18.60
64960;BMP180;51487;52.266;10.542;2023-08-21T05:29:02;101370.00;;;18.60
64960;BMP180;51487;52.266;10.542;2023-08-21T05:31:28;101370.00;;;18.60
64960;BMP180;51487;52.266;10.542;2023-08-21T05:33:53;101373.00;;;18.60
64960;BMP180;51487;52.266;10.542;2023-08-21T05:36:19;101374.00;;;18.60
64960;BMP180;51487;52.266;10.542;2023-08-21T05:38:44;101375.00;;;18.70
64960;BMP180;51487;52.266;10.542;2023-08-21T05:41:11;101379.00;;;18.60
64960;BMP180;51487;52.266;10.542;2023-08-21T05:43:36;101385.00;;;18.60
64960;BMP180;51487;52.266;10.542;2023-08-21T05:46:02;101385.00;;;18.60
64960;BMP180;51487;52.266;10.542;2023-08-21T05:48:31;101382.00;;;18.60
64960;BMP180;51487;52.266;10.542;2023-08-21T05:50:56;101383.00;;;18.80
64960;BMP180;51487;52.266;10.542;2023-08-21T05:53:22;101384.00;;;18.90
64960;BMP180;51487;52.266;10.542;2023-08-21T05:55:48;101396.00;;;19.00
64960;BMP180;51487;52.266;10.542;2023-08-21T05:58:13;101394.00;;;19.10
64960;BMP180;51487;52.266;10.542;2023-08-21T06:00:39;101401.00;;;19.10
64960;BMP180;51487;52.266;10.542;2023-08-21T06:03:04;101404.00;;;19.20
64960;BMP180;51487;52.266;10.542;2023-08-21T06:05:30;101391.00;;;19.20
64960;BMP180;51487;52.266;10.542;2023-08-21T06:07:56;101396.00;;;19.40
64960;BMP180;51487;52.266;10.542;2023-08-21T06:10:21;101392.00;;;19.40
64960;BMP180;51487;52.266;10.542;2023-08-21T06:12:47;101408.00;;;19.60
64960;BMP180;51487;52.266;10.542;2023-08-21T06:15:13;101398.00;;;19.70
64960;BMP180;51487;52.266;10.542;2023-08-21T06:17:39;101403.00;;;19.80
64960;BMP180;51487;52.266;10.542;2023-08-21T06:20:06;101392.00;;;19.70
64960;BMP180;51487;52.266;10.542;2023-08-21T06:22:34;101396.00;;;19.80
64960;BMP180;51487;52.266;10.542;2023-08-21T06:25:00;101394.00;;;19.90
64960;BMP180;51487;52.266;10.542;2023-08-21T06:27:26;101392.00;;;20.00
64960;BMP180;51487;52.266;10.542;2023-08-21T06:29:52;101392.00;;;20.00
64960;BMP180;51487;52.266;10.542;2023-08-21T06:32:17;101398.00;;;19.80
64960;BMP180;51487;52.266;10.542;2023-08-21T06:34:43;101394.00;;;19.90
64960;BMP180;51487;52.266;10.542;2023-08-21T06:37:09;101408.00;;;20.00
64960;BMP180;51487;52.266;10.542;2023-08-21T06:39:34;101405.00;;;20.10
64960;BMP180;51487;52.266;10.542;2023-08-21T06:42:00;101408.00;;;20.20
64960;BMP180;51487;52.266;10.542;2023-08-21T06:44:26;101411.00;;;20.30
64960;BMP180;51487;52.266;10.542;2023-08-21T06:46:52;101402.00;;;20.40
64960;BMP180;51487;52.266;10.542;2023-08-21T06:49:18;101403.00;;;20.50
64960;BMP180;51487;52.266;10.542;2023-08-21T06:51:43;101409.00;;;20.50
64960;BMP180;51487;52.266;10.542;2023-08-21T06:54:09;101407.00;;;20.40
64960;BMP180;51487;52.266;10.542;2023-08-21T06:56:34;101409.00;;;20.40
64960;BMP180;51487;52.266;10.542;2023-08-21T06:59:00;101408.00;;;20.50
64960;BMP180;51487;52.266;10.542;2023-08-21T07:01:27;101402.00;;;20.40
64960;BMP180;51487;52.266;10.542;2023-08-21T07:03:53;101399.00;;;20.50
64960;BMP180;51487;52.266;10.542;2023-08-21T07:06:19;101408.00;;;20.50
64960;BMP180;51487;52.266;10.542;2023-08-21T07:08:45;101408.00;;;20.60
64960;BMP180;51487;52.266;10.542;2023-08-21T07:11:10;101410.00;;;20.60
64960;BMP180;51487;52.266;10.542;2023-08-21T07:13:37;101411.00;;;20.60
64960;BMP180;51487;52.266;10.542;2023-08-21T07:16:03;101417.00;;;20.60
64960;BMP180;51487;52.266;10.542;2023-08-21T07:18:34;101418.00;;;20.70
64960;BMP180;51487;52.266;10.542;2023-08-21T07:21:03;101414.00;;;20.80
64960;BMP180;51487;52.266;10.542;2023-08-21T07:23:29;101406.00;;;20.90
64960;BMP180;51487;52.266;10.542;2023-08-21T07:25:59;101416.00;;;20.90
64960;BMP180;51487;52.266;10.542;2023-08-21T07:28:25;101412.00;;;20.90
64960;BMP180;51487;52.266;10.542;2023-08-21T07:30:55;101419.00;;;21.00
64960;BMP180;51487;52.266;10.542;2023-08-21T07:33:22;101420.00;;;21.40
64960;BMP180;51487;52.266;10.542;2023-08-21T07:35:47;101419.00;;;21.60
64960;BMP180;51487;52.266;10.542;2023-08-21T07:38:25;101422.00;;;21.90
64960;BMP180;51487;52.266;10.542;2023-08-21T07:41:01;101422.00;;;21.80
64960;BMP180;51487;52.266;10.542;2023-08-21T07:43:41;101418.00;;;21.80
64960;BMP180;51487;52.266;10.542;2023-08-21T07:46:12;101413.00;;;22.10
64960;BMP180;51487;52.266;10.542;2023-08-21T07:48:41;101424.00;;;22.20
64960;BMP180;51487;52.266;10.542;2023-08-21T07:51:07;101418.00;;;22.10
64960;BMP180;51487;52.266;10.542;2023-08-21T07:53:33;101410.00;;;22.10
64960;BMP180;51487;52.266;10.542;2023-08-21T07:56:00;101416.00;;;22.00
64960;BMP180;51487;52.266;10.542;2023-08-21T07:58:26;101425.00;;;21.80
64960;BMP180;51487;52.266;10.542;2023-08-21T08:00:53;101428.00;;;21.80
64960;BMP180;51487;52.266;10.542;2023-08-21T08:03:18;101434.00;;;21.80
64960;BMP180;51487;52.266;10.542;2023-08-21T08:05:44;101426.00;;;21.90
64960;BMP180;51487;52.266;10.542;2023-08-21T08:08:09;101426.00;;;21.80
64960;BMP180;51487;52.266;10.542;2023-08-21T08:10:39;101430.00;;;21.90
64960;BMP180;51487;52.266;10.542;2023-08-21T08:13:06;101422.00;;;22.00
64960;BMP180;51487;52.266;10.542;2023-08-21T08:15:32;101423.00;;;22.10
64960;BMP180;51487;52.266;10.542;2023-08-21T08:17:59;101429.00;;;22.10
64960;BMP180;51487;52.266;10.542;2023-08-21T08:20:25;101434.00;;;22.00
64960;BMP180;51487;52.266;10.542;2023-08-21T08:22:50;101441.00;;;21.90
64960;BMP180;51487;52.266;10.542;2023-08-21T08:25:16;101441.00;;;22.00
64960;BMP180;51487;52.266;10.542;2023-08-21T08:27:42;101441.00;;;22.10
64960;BMP180;51487;52.266;10.542;2023-08-21T08:30:09;101448.00;;;22.20
64960;BMP180;51487;52.266;10.542;2023-08-21T08:32:34;101437.00;;;22.50
64960;BMP180;51487;52.266;10.542;2023-08-21T08:35:00;101432.00;;;22.50
64960;BMP180;51487;52.266;10.542;2023-08-21T08:37:25;101429.00;;;22.70
64960;BMP180;51487;52.266;10.542;2023-08-21T08:39:51;101436.00;;;22.60
64960;BMP180;51487;52.266;10.542;2023-08-21T08:42:16;101442.00;;;22.60
64960;BMP180;51487;52.266;10.542;2023-08-21T08:44:43;101447.00;;;22.70
64960;BMP180;51487;52.266;10.542;2023-08-21T08:47:11;101447.00;;;22.60
64960;BMP180;51487;52.266;10.542;2023-08-21T08:49:38;101444.00;;;22.50
64960;BMP180;51487;52.266;10.542;2023-08-21T08:52:04;101446.00;;;22.40
64960;BMP180;51487;52.266;10.542;2023-08-21T08:54:31;101444.00;;;22.30
64960;BMP180;51487;52.266;10.542;2023-08-21T08:56:57;101438.00;;;22.40
64960;BMP180;51487;52.266;10.542;2023-08-21T08:59:23;101439.00;;;22.60
64960;BMP180;51487;52.266;10.542;2023-08-21T09:01:49;101442.00;;;22.70
64960;BMP180;51487;52.266;10.542;2023-08-21T09:04:14;101435.00;;;22.40
64960;BMP180;51487;52.266;10.542;2023-08-21T09:06:40;101442.00;;;22.50
64960;BMP180;51487;52.266;10.542;2023-08-21T09:09:08;101444.00;;;22.80
64960;BMP180;51487;52.266;10.542;2023-08-21T09:11:36;101442.00;;;22.80
64960;BMP180;51487;52.266;10.542;2023-08-21T09:14:07;101433.00;;;22.70
64960;BMP180;51487;52.266;10.542;2023-08-21T09:16:32;101432.00;;;22.50
64960;BMP180;51487;52.266;10.542;2023-08-21T09:18:58;101431.00;;;22.40
64960;BMP180;51487;52.266;10.542;2023-08-21T09:21:24;101428.00;;;22.50
64960;BMP180;51487;52.266;10.542;2023-08-21T09:23:59;101429.00;;;22.70
64960;BMP180;51487;52.266;10.542;2023-08-21T09:26:30;101425.00;;;22.80
64960;BMP180;51487;52.266;10.542;2023-08-21T09:29:03;101432.00;;;22.70
64960;BMP180;51487;52.266;10.542;2023-08-21T09:31:30;101424.00;;;22.70
64960;BMP180;51487;52.266;10.542;2023-08-21T09:33:59;101425.00;;;22.60
64960;BMP180;51487;52.266;10.542;2023-08-21T09:36:30;101418.00;;;22.70
64960;BMP180;51487;52.266;10.542;2023-08-21T09:38:56;101410.00;;;22.70
64960;BMP180;51487;52.266;10.542;2023-08-21T09:41:23;101422.00;;;22.80
64960;BMP180;51487;52.266;10.542;2023-08-21T09:43:50;101422.00;;;22.80
64960;BMP180;51487;52.266;10.542;2023-08-21T09:46:26;101417.00;;;22.70
64960;BMP180;51487;52.266;10.542;2023-08-21T09:48:52;101412.00;;;22.50
64960;BMP180;51487;52.266;10.542;2023-08-21T09:51:19;101421.00;;;22.90
64960;BMP180;51487;52.266;10.542;2023-08-21T09:53:47;101414.00;;;23.00
64960;BMP180;51487;52.266;10.542;2023-08-21T09:56:14;101414.00;;;23.10
64960;BMP180;51487;52.266;10.542;2023-08-21T09:58:40;101414.00;;;23.10
64960;BMP180;51487;52.266;10.542;2023-08-21T10:01:07;101416.00;;;22.90
64960;BMP180;51487;52.266;10.542;2023-08-21T10:03:40;101417.00;;;22.90
64960;BMP180;51487;52.266;10.542;2023-08-21T10:06:09;101409.00;;;22.90
64960;BMP180;51487;52.266;10.542;2023-08-21T10:08:37;101416.00;;;22.90
64960;BMP180;51487;52.266;10.542;2023-08-21T10:11:07;101416.00;;;23.00
64960;BMP180;51487;52.266;10.542;2023-08-21T10:13:35;101412.00;;;23.00
64960;BMP180;51487;52.266;10.542;2023-08-21T10:16:03;101412.00;;;23.00
64960;BMP180;51487;52.266;10.542;2023-08-21T10:18:35;101408.00;;;22.90
64960;BMP180;51487;52.266;10.542;2023-08-21T10:21:18;101407.00;;;23.10
64960;BMP180;51487;52.266;10.542;2023-08-21T10:23:49;101407.00;;;23.20
64960;BMP180;51487;52.266;10.542;2023-08-21T10:26:19;101404.00;;;23.30
64960;BMP180;51487;52.266;10.542;2023-08-21T10:28:55;101404.00;;;23.60
64960;BMP180;51487;52.266;10.542;2023-08-21T10:31:32;101401.00;;;23.60
64960;BMP180;51487;52.266;10.542;2023-08-21T10:34:06;101410.00;;;23.90
64960;BMP180;51487;52.266;10.542;2023-08-21T10:36:42;101413.00;;;24.10
64960;BMP180;51487;52.266;10.542;2023-08-21T10:39:26;101411.00;;;24.10
64960;BMP180;51487;52.266;10.542;2023-08-21T10:42:02;101423.00;;;24.00
64960;BMP180;51487;52.266;10.542;2023-08-21T10:47:18;101425.00;;;23.50
64960;BMP180;51487;52.266;10.542;2023-08-21T10:49:55;101412.00;;;23.40
64960;BMP180;51487;52.266;10.542;2023-08-21T10:54:50;101418.00;;;23.50
64960;BMP180;51487;52.266;10.542;2023-08-21T10:57:18;101408.00;;;23.70
64960;BMP180;51487;52.266;10.542;2023-08-21T11:02:31;101409.00;;;24.10
64960;BMP180;51487;52.266;10.542;2023-08-21T11:04:59;101419.00;;;24.10
64960;BMP180;51487;52.266;10.542;2023-08-21T11:07:26;101417.00;;;24.20
64960;BMP180;51487;52.266;10.542;2023-08-21T11:09:52;101419.00;;;23.90
64960;BMP180;51487;52.266;10.542;2023-08-21T11:12:21;101426.00;;;23.80
64960;BMP180;51487;52.266;10.542;2023-08-21T11:14:48;101413.00;;;23.80
64960;BMP180;51487;52.266;10.542;2023-08-21T11:17:14;101410.00;;;23.80
64960;BMP180;51487;52.266;10.542;2023-08-21T11:19:41;101399.00;;;23.60
64960;BMP180;51487;52.266;10.542;2023-08-21T11:22:07;101412.00;;;23.80
64960;BMP180;51487;52.266;10.542;2023-08-21T11:24:44;101408.00;;;23.80
64960;BMP180;51487;52.266;10.542;2023-08-21T11:27:15;101408.00;;;23.80
64960;BMP180;51487;52.266;10.542;2023-08-21T11:29:50;101412.00;;;23.70
64960;BMP180;51487;52.266;10.542;2023-08-21T11:32:21;101406.00;;;23.70
64960;BMP180;51487;52.266;10.542;2023-08-21T11:34:51;101410.00;;;23.70
64960;BMP180;51487;52.266;10.542;2023-08-21T11:37:18;101414.00;;;23.90
64960;BMP180;51487;52.266;10.542;2023-08-21T11:39:50;101407.00;;;23.90
64960;BMP180;51487;52.266;10.542;2023-08-21T11:42:21;101402.00;;;24.00
64960;BMP180;51487;52.266;10.542;2023-08-21T11:44:53;101403.00;;;24.00
64960;BMP180;51487;52.266;10.542;2023-08-21T11:47:20;101412.00;;;24.10
64960;BMP180;51487;52.266;10.542;2023-08-21T11:49:48;101404.00;;;24.00
64960;BMP180;51487;52.266;10.542;2023-08-21T11:52:18;101400.00;;;23.80
64960;BMP180;51487;52.266;10.542;2023-08-21T11:54:48;101393.00;;;23.70
64960;BMP180;51487;52.266;10.542;2023-08-21T11:57:15;101394.00;;;23.70
64960;BMP180;51487;52.266;10.542;2023-08-21T11:59:41;101401.00;;;23.80
64960;BMP180;51487;52.266;10.542;2023-08-21T12:02:14;101407.00;;;23.80
64960;BMP180;51487;52.266;10.542;2023-08-21T12:04:42;101405.00;;;24.10
64960;BMP180;51487;52.266;10.542;2023-08-21T12:07:07;101402.00;;;24.10
64960;BMP180;51487;52.266;10.542;2023-08-21T12:09:33;101398.00;;;24.00
64960;BMP180;51487;52.266;10.542;2023-08-21T12:11:58;101415.00;;;24.50
64960;BMP180;51487;52.266;10.542;2023-08-21T12:14:24;101417.00;;;24.70
64960;BMP180;51487;52.266;10.542;2023-08-21T12:16:50;101411.00;;;25.10
64960;BMP180;51487;52.266;10.542;2023-08-21T12:19:15;101409.00;;;25.20
64960;BMP180;51487;52.266;10.542;2023-08-21T12:21:41;101416.00;;;25.20
64960;BMP180;51487;52.266;10.542;2023-08-21T12:24:06;101418.00;;;25.10
64960;BMP180;51487;52.266;10.542;2023-08-21T12:26:33;101411.00;;;25.20
64960;BMP180;51487;52.266;10.542;2023-08-21T12:29:00;101415.00;;;25.20
64960;BMP180;51487;52.266;10.542;2023-08-21T12:31:27;101413.00;;;25.20
64960;BMP180;51487;52.266;10.542;2023-08-21T12:33:53;101409.00;;;25.10
64960;BMP180;51487;52.266;10.542;2023-08-21T12:36:18;101402.00;;;25.10
64960;BMP180;51487;52.266;10.542;2023-08-21T12:38:44;101397.00;;;24.80
64960;BMP180;51487;52.266;10.542;2023-08-21T12:41:10;101380.00;;;24.60
64960;BMP180;51487;52.266;10.542;2023-08-21T12:43:35;101386.00;;;24.50
64960;BMP180;51487;52.266;10.542;2023-08-21T12:46:01;101389.00;;;24.30
64960;BMP180;51487;52.266;10.542;2023-08-21T12:48:26;101378.00;;;24.30
64960;BMP180;51487;52.266;10.542;2023-08-21T12:50:52;101379.00;;;24.30
64960;BMP180;51487;52.266;10.542;2023-08-21T12:53:18;101384.00;;;24.30
64960;BMP180;51487;52.266;10.542;2023-08-21T12:55:43;101385.00;;;24.30
64960;BMP180;51487;52.266;10.542;2023-08-21T12:58:09;101386.00;;;24.40
64960;BMP180;51487;52.266;10.542;2023-08-21T13:00:35;101393.00;;;24.40
64960;BMP180;51487;52.266;10.542;2023-08-21T13:03:00;101391.00;;;24.20
64960;BMP180;51487;52.266;10.542;2023-08-21T13:05:26;101396.00;;;24.20
64960;BMP180;51487;52.266;10.542;2023-08-21T13:07:51;101390.00;;;24.50
64960;BMP180;51487;52.266;10.542;2023-08-21T13:10:17;101389.00;;;24.40
64960;BMP180;51487;52.266;10.542;2023-08-21T13:12:43;101386.00;;;24.90
64960;BMP180;51487;52.266;10.542;2023-08-21T13:15:09;101384.00;;;24.80
64960;BMP180;51487;52.266;10.542;2023-08-21T13:17:36;101384.00;;;24.60
64960;BMP180;51487;52.266;10.542;2023-08-21T13:20:02;101383.00;;;24.50
64960;BMP180;51487;52.266;10.542;2023-08-21T13:22:28;101385.00;;;24.50
64960;BMP180;51487;52.266;10.542;2023-08-21T13:24:54;101385.00;;;24.40
64960;BMP180;51487;52.266;10.542;2023-08-21T13:27:19;101384.00;;;24.30
64960;BMP180;51487;52.266;10.542;2023-08-21T13:29:46;101388.00;;;24.40
64960;BMP180;51487;52.266;10.542;2023-08-21T13:32:12;101382.00;;;24.40
64960;BMP180;51487;52.266;10.542;2023-08-21T13:34:37;101385.00;;;24.40
64960;BMP180;51487;52.266;10.542;2023-08-21T13:37:03;101381.00;;;24.40
64960;BMP180;51487;52.266;10.542;2023-08-21T13:39:29;101380.00;;;24.40
64960;BMP180;51487;52.266;10.542;2023-08-21T13:41:55;101365.00;;;24.70
64960;BMP180;51487;52.266;10.542;2023-08-21T13:44:21;101367.00;;;24.60
64960;BMP180;51487;52.266;10.542;2023-08-21T13:46:47;101375.00;;;24.70
64960;BMP180;51487;52.266;10.542;2023-08-21T13:49:12;101370.00;;;24.80
64960;BMP180;51487;52.266;10.542;2023-08-21T13:51:38;101376.00;;;24.80